• Join FlightAware (Why Join?)
  • Login
  • US Flag 
06:59PM EST


 

Airport Tracker/Info


-or-


 

Live Flight TrackerFlight Track Log ✈ SVA1480 ✈ 26-Sep-2013 ✈ OEPA / AQI - OERK / RUH

Flight Track Log - Related Links

Times and Time Zones

All times are in EDT time to prevent confusion due to time zone crossing. See the SVA1480 flight status page for this flight to view local times or setup timezone preferences in your user account.

Time Position Orientation Groundspeed Altitude Reporting Facility
EDT Latitude Longitude Course Direction KTS MPH feet Rate Location/Type
01:13AM 26.6970 46.4076 171° South  Level Estimated
01:14AM 26.6006 46.4240 171° South  Level Estimated
01:15AM 26.5042 46.4403 171° South  Level Estimated
01:16AM 26.4078 46.4566 171° South  Level Estimated
01:17AM 26.3114 46.4729 171° South  Level Estimated
01:18AM 26.2150 46.4892 171° South  Level Estimated
01:19AM 26.1187 46.5054 171° South  Level Estimated
01:20AM 26.0223 46.5216 171° South  Level Estimated
01:21AM 25.9259 46.5378 171° South  Level Estimated
01:22AM 25.8295 46.5539 171° South  Level Estimated
01:23AM 25.7331 46.5700 171° South  Level Estimated
01:24AM 25.6367 46.5861 171° South  Level Estimated
01:25AM 25.5403 46.6022 171° South  Level Estimated
01:26AM 25.4439 46.6183 171° South  Level Estimated
01:27AM 25.3475 46.6343 171° South  Level Estimated
01:28AM 25.2511 46.6503 171° South  Level Estimated
01:29AM 25.1546 46.6662 171° South  Level Estimated
01:30AM 25.0582 46.6822 171° South  Level Estimated
01:31AM 24.9618 46.6981 171° South  Level Estimated
01:32AM 24.9576 46.6988 172° South  Level Estimated
01:33AM 24.9576 46.6988 270° West  Level Estimated
01:34AM 24.9576 46.6988 270° West  Level Estimated
01:35AM 24.9576 46.6988 270° West  Level Estimated
01:36AM 24.9576 46.6988 270° West  Level Estimated
01:37AM 24.9576 46.6988 270° West  Level Estimated
01:38AM 24.9576 46.6988 270° West  Level Estimated
01:39AM 24.9576 46.6988 270° West  Level Estimated
01:40AM 24.9576 46.6988 270° West  Level Estimated
01:41AM 24.9576 46.6988 270° West  Level Estimated
01:42AM 24.9576 46.6988 270° West  Level Estimated
01:43AM 24.9576 46.6988 270° West  Level Estimated
01:44AM 24.9576 46.6988 270° West  Level Estimated
01:45AM 24.9576 46.6988 270° West  Level Estimated
01:46AM 24.9576 46.6988 270° West  Level Estimated
01:47AM 24.9576 46.6988 270° West  Level Estimated